This demonstration page uses our WeatherBlox Daily Observations layout. Learn more.

41.55636, -103.73856

Hourly Observations for January 2, 2020

Temp ( °F °C ) Dew Point ( °F °C ) Humidity (%) Winds ( mph kmh ) Pressure ( in mb ) Visibility ( mi km ) Precip ( " mm )
12:58 am 00:58 Clear 36 2.4 26 -3.3 66 66 WNW 13 20 29.5 999 10 16.0934 0 0
1:58 am 01:58 Clear 37 2.6 26 -3.5 64 64 WNW 16 26 29.47 998 10 16.0934 0 0
2:58 am 02:58 Clear 35 1.6 26 -3.4 70 70 WNW 18 30 29.47 998 10 16.0934 0 0
3:58 am 03:58 Clear 35 1.5 25 -3.8 68 68 WNW 14 22 29.47 998 10 16.0934 0 0
4:58 am 04:58 Clear 30 -1.1 24 -4.5 78 78 W 9 15 29.51 999 10 16.0934 0 0
5:58 am 05:58 Mostly Cloudy 33 0.8 26 -3.6 73 73 W 14 22 29.5 999 10 16.0934 0 0
7:58 am 07:58 Mostly Cloudy 28 -2.3 24 -4.5 85 85 SW 8 13 29.56 1001 10 16.0934 0 0
8:58 am 08:58 Mostly Cloudy 30 -0.9 25 -4.1 79 79 W 9 15 29.6 1002 10 16.0934 0 0
9:58 am 09:58 Partly Cloudy 32 -0.2 24 -4.2 75 75 WNW 8 13 29.62 1003 10 16.0934 0 0
10:58 am 10:58 Mostly Cloudy 30 -0.9 24 -4.7 76 76 WNW 12 19 29.65 1004 10 16.0934 0 0
11:58 am 11:58 Clear 28 -2 22 -5.4 78 78 WNW 14 22 29.67 1005 10 16.0934 0 0
12:58 pm 12:58 Clear 28 -2.3 21 -6 76 76 WNW 14 22 29.7 1006 10 16.0934 0 0
1:58 pm 13:58 Clear 27 -2.8 22 -5.8 80 80 WNW 12 19 29.72 1006 10 16.0934 0 0
2:58 pm 14:58 Sunny 25 -4.1 20 -6.8 82 82 NW 6 9 29.76 1008 10 16.0934 0 0
3:58 pm 15:58 Partly Cloudy 29 -1.6 24 -4.5 81 81 W 6 9 29.79 1009 10 16.0934 0 0
4:58 pm 16:58 Mostly Sunny 35 1.6 23 -4.8 63 63 WNW 14 22 29.81 1010 10 16.0934 0 0
5:58 pm 17:58 Mostly Cloudy 36 2.2 25 -3.9 64 64 NW 14 22 29.8 1009 10 16.0934 0 0
6:58 pm 18:58 Partly Cloudy 39 3.8 25 -3.7 58 58 NW 13 20 29.76 1008 10 16.0934 0 0
7:58 pm 19:58 Mostly Sunny 39 4 24 -4.3 55 55 NW 20 31 29.75 1007 10 16.0934 0 0
8:58 pm 20:58 Sunny 40 4.4 24 -4.5 53 53 NW 13 20 29.74 1007 10 16.0934 0 0
11:58 pm 23:58 Clear 34 1.3 20 -6.8 55 55 WNW 17 28 29.82 1010 10 16.0934 0 0

Powered by AerisWeather